createdAt,value
2018-11-21T00:00:11.104Z,11.67
2018-11-21T00:02:39.795Z,12.03
2018-11-21T00:05:08.379Z,13.87
2018-11-21T00:07:37.619Z,10.53
2018-11-21T00:10:09.259Z,14.33
2018-11-21T00:12:38.647Z,11.77
2018-11-21T00:15:10.998Z,13.20
2018-11-21T00:17:40.707Z,11.07
2018-11-21T00:20:10.581Z,11.80
2018-11-21T00:22:39.398Z,12.27
2018-11-21T00:25:08.194Z,11.10
2018-11-21T00:27:36.983Z,11.43
2018-11-21T00:30:10.727Z,14.17
2018-11-21T00:32:39.315Z,11.57
2018-11-21T00:35:08.911Z,11.83
2018-11-21T00:37:37.635Z,10.60
2018-11-21T00:40:12.209Z,11.97
2018-11-21T00:42:39.435Z,10.00
2018-11-21T00:45:10.645Z,11.80
2018-11-21T00:47:39.312Z,10.23
2018-11-21T00:50:08.069Z,9.70
2018-11-21T00:52:38.893Z,10.23
2018-11-21T00:55:06.569Z,10.17
2018-11-21T00:57:35.143Z,9.97
2018-11-21T01:00:04.038Z,10.13
2018-11-21T01:02:38.880Z,9.40
2018-11-21T01:05:01.483Z,8.87
2018-11-21T01:07:30.039Z,10.30
2018-11-21T01:09:58.802Z,9.00
2018-11-21T01:12:27.382Z,10.63
2018-11-21T01:14:56.023Z,10.20
2018-11-21T01:17:24.749Z,9.63
2018-11-21T01:19:53.369Z,10.50
2018-11-21T01:22:22.170Z,10.07
2018-11-21T01:24:50.909Z,9.90
2018-11-21T01:27:19.779Z,8.97
2018-11-21T01:29:51.082Z,9.33
2018-11-21T01:32:19.810Z,9.57
2018-11-21T01:34:48.613Z,10.67
2018-11-21T01:37:17.301Z,10.27
2018-11-21T01:39:46.026Z,10.63
2018-11-21T01:42:14.784Z,10.63
2018-11-21T01:44:43.458Z,9.77
2018-11-21T01:47:12.161Z,10.47
2018-11-21T01:49:40.905Z,9.27
2018-11-21T01:52:09.844Z,10.33
2018-11-21T01:54:40.869Z,9.93
2018-11-21T01:57:09.622Z,10.70
2018-11-21T01:59:38.316Z,10.60
2018-11-21T02:02:07.010Z,10.57
2018-11-21T02:04:35.660Z,10.00
2018-11-21T02:07:04.488Z,11.73
2018-11-21T02:09:33.163Z,10.40
2018-11-21T02:12:01.796Z,10.03
2018-11-21T02:14:49.953Z,10.43
2018-11-21T02:17:18.634Z,9.90
2018-11-21T02:19:47.208Z,9.90
2018-11-21T02:22:15.850Z,9.43
2018-11-21T02:24:44.554Z,9.30
2018-11-21T02:27:13.186Z,10.03
2018-11-21T02:29:43.211Z,9.20
2018-11-21T02:32:10.450Z,8.80
2018-11-21T02:34:39.170Z,10.10
2018-11-21T02:37:07.866Z,10.40
2018-11-21T02:39:36.488Z,9.13
2018-11-21T02:42:08.069Z,9.60
2018-11-21T02:44:36.738Z,9.70
2018-11-21T02:47:05.392Z,9.93
2018-11-21T02:49:33.978Z,9.27
2018-11-21T02:52:02.770Z,11.10
2018-11-21T02:54:31.409Z,11.77
2018-11-21T02:57:20.368Z,11.50
2018-11-21T02:59:50.265Z,9.63
2018-11-21T03:02:18.861Z,10.10
2018-11-21T03:04:47.542Z,10.80
2018-11-21T03:07:16.180Z,10.50
2018-11-21T03:09:44.791Z,11.27
2018-11-21T03:12:13.425Z,13.60
2018-11-21T03:14:42.064Z,11.07
2018-11-21T03:17:10.879Z,15.67
2018-11-21T03:19:39.545Z,16.47
2018-11-21T03:22:08.117Z,12.20
2018-11-21T03:24:36.805Z,14.50
2018-11-21T03:27:05.545Z,10.77
2018-11-21T03:29:34.130Z,10.60
2018-11-21T03:32:02.789Z,11.43
2018-11-21T03:34:31.450Z,10.57
2018-11-21T03:37:00.076Z,11.20
2018-11-21T03:39:28.675Z,10.37
2018-11-21T03:41:57.353Z,10.93
2018-11-21T03:44:25.969Z,10.70
2018-11-21T03:46:54.606Z,11.10
2018-11-21T03:49:24.650Z,10.80
2018-11-21T03:51:51.990Z,10.00
2018-11-21T03:54:20.546Z,11.07
2018-11-21T03:56:49.165Z,10.87
2018-11-21T03:59:17.844Z,9.57
2018-11-21T04:01:46.513Z,10.33
2018-11-21T04:04:17.171Z,9.20
2018-11-21T04:06:43.825Z,9.37
2018-11-21T04:09:13.323Z,9.63
2018-11-21T04:11:42.411Z,9.23
2018-11-21T04:14:11.071Z,9.30
2018-11-21T04:16:39.742Z,8.90
2018-11-21T04:19:08.560Z,8.87
2018-11-21T04:21:37.220Z,10.10
2018-11-21T04:24:06.186Z,9.97
2018-11-21T04:26:34.840Z,10.20
2018-11-21T04:29:03.571Z,11.00
2018-11-21T04:31:32.098Z,10.50
2018-11-21T04:34:00.824Z,9.40
2018-11-21T04:36:29.393Z,9.00
2018-11-21T04:38:57.987Z,8.77
2018-11-21T04:41:28.792Z,10.60
2018-11-21T04:43:57.419Z,9.93
2018-11-21T04:46:27.091Z,9.10
2018-11-21T04:48:54.770Z,8.93
2018-11-21T04:51:25.736Z,9.90
2018-11-21T04:53:54.284Z,9.30
2018-11-21T04:56:22.968Z,9.83
2018-11-21T04:58:51.532Z,9.43
2018-11-21T05:01:20.186Z,9.00
2018-11-21T05:03:48.834Z,9.37
2018-11-21T05:06:17.472Z,8.83
2018-11-21T05:08:46.081Z,8.83
2018-11-21T05:11:14.826Z,9.03
2018-11-21T05:13:43.736Z,9.70
2018-11-21T05:16:12.383Z,9.93
2018-11-21T05:18:41.046Z,9.20
2018-11-21T05:21:09.635Z,8.93
2018-11-21T05:23:38.266Z,9.47
2018-11-21T05:26:08.181Z,8.67
2018-11-21T05:28:35.691Z,11.17
2018-11-21T05:31:04.291Z,8.73
2018-11-21T05:33:32.977Z,9.97
2018-11-21T05:36:01.593Z,9.03
2018-11-21T05:38:30.202Z,10.27
2018-11-21T05:40:58.846Z,11.57
2018-11-21T05:43:27.461Z,10.00
2018-11-21T05:45:56.051Z,9.47
2018-11-21T05:48:24.660Z,9.53
2018-11-21T05:50:53.421Z,9.07
2018-11-21T05:53:22.097Z,9.50
2018-11-21T05:55:50.661Z,8.90
2018-11-21T05:58:19.387Z,10.53
2018-11-21T06:00:49.185Z,10.17
2018-11-21T06:03:16.743Z,9.23
2018-11-21T06:05:45.489Z,10.20
2018-11-21T06:08:14.161Z,9.37
2018-11-21T06:10:42.787Z,9.77
2018-11-21T06:13:11.488Z,11.07
2018-11-21T06:15:40.077Z,9.33
2018-11-21T06:18:08.797Z,10.20
2018-11-21T06:20:37.508Z,10.00
2018-11-21T06:23:07.111Z,9.90
2018-11-21T06:25:35.914Z,10.20
2018-11-21T06:28:04.533Z,10.07
2018-11-21T06:30:35.447Z,9.67
2018-11-21T06:33:04.212Z,9.43
2018-11-21T06:35:32.848Z,11.07
2018-11-21T06:38:01.508Z,10.30
2018-11-21T06:40:30.123Z,10.33
2018-11-21T06:42:59.721Z,10.13
2018-11-21T06:45:29.368Z,11.80
2018-11-21T06:47:58.050Z,10.00
2018-11-21T06:50:26.605Z,9.83
2018-11-21T06:52:57.707Z,10.47
2018-11-21T06:55:25.207Z,9.83
2018-11-21T06:57:53.768Z,9.77
2018-11-21T07:00:22.427Z,10.17
2018-11-21T07:02:51.066Z,10.23
2018-11-21T07:05:19.607Z,10.40
2018-11-21T07:07:48.485Z,10.53
2018-11-21T07:10:17.491Z,10.07
2018-11-21T07:12:46.290Z,10.30
2018-11-21T07:15:14.950Z,10.90
2018-11-21T07:17:43.669Z,9.53
2018-11-21T07:20:13.539Z,10.00
2018-11-21T07:22:42.721Z,8.57
2018-11-21T07:25:21.876Z,9.53
2018-11-21T07:27:50.484Z,10.23
2018-11-21T07:30:19.448Z,10.37
2018-11-21T07:32:48.018Z,10.07
2018-11-21T07:35:18.362Z,10.00
2018-11-21T07:37:45.774Z,10.20
2018-11-21T07:40:16.513Z,10.57
2018-11-21T07:42:43.849Z,10.10
2018-11-21T07:45:13.816Z,11.30
2018-11-21T07:47:43.098Z,10.80
2018-11-21T07:50:14.287Z,9.80
2018-11-21T07:52:43.183Z,9.37
2018-11-21T07:55:12.444Z,9.83
2018-11-21T07:57:58.147Z,10.63
2018-11-21T08:01:16.772Z,8.97
2018-11-21T08:03:55.931Z,11.70
2018-11-21T08:06:46.419Z,12.93
2018-11-21T08:09:35.440Z,10.43
2018-11-21T08:12:42.501Z,9.40
2018-11-21T08:15:30.568Z,8.90
2018-11-21T08:18:28.717Z,9.83
2018-11-21T08:21:24.276Z,8.80
2018-11-21T08:24:18.892Z,8.47
2018-11-21T08:27:18.193Z,9.50
2018-11-21T08:29:46.868Z,8.87
2018-11-21T08:32:16.841Z,8.67
2018-11-21T08:34:44.163Z,8.93
2018-11-21T08:37:12.911Z,8.83
2018-11-21T08:39:42.630Z,9.57
2018-11-21T08:42:10.085Z,8.47
2018-11-21T08:44:38.710Z,8.70
2018-11-21T08:47:08.173Z,8.83
2018-11-21T08:49:36.767Z,8.93
2018-11-21T08:52:08.130Z,9.33
2018-11-21T08:54:39.203Z,9.80
2018-11-21T08:57:07.835Z,8.50
2018-11-21T08:59:36.457Z,9.43
2018-11-21T09:02:05.173Z,8.50
2018-11-21T09:04:35.091Z,8.60
2018-11-21T09:07:02.350Z,9.97
2018-11-21T09:09:30.912Z,9.83
2018-11-21T09:11:59.773Z,9.80
2018-11-21T09:14:28.345Z,11.80
2018-11-21T09:16:58.429Z,11.20
2018-11-21T09:19:25.907Z,10.00
2018-11-21T09:21:54.486Z,10.57
2018-11-21T09:24:23.306Z,10.60
2018-11-21T09:26:51.827Z,9.77
2018-11-21T09:29:22.572Z,8.17
2018-11-21T09:31:49.039Z,8.23
2018-11-21T09:34:17.862Z,8.03
2018-11-21T09:36:46.523Z,7.47
2018-11-21T09:39:15.076Z,7.97
2018-11-21T09:41:43.720Z,8.27
2018-11-21T09:44:12.360Z,8.27
2018-11-21T09:46:40.960Z,7.50
2018-11-21T09:49:09.564Z,8.17
2018-11-21T09:51:38.193Z,8.20
2018-11-21T09:54:06.828Z,8.60
2018-11-21T09:56:35.502Z,8.27
2018-11-21T09:59:04.146Z,8.20
2018-11-21T10:02:08.949Z,7.00
2018-11-21T10:04:46.568Z,8.50
2018-11-21T10:07:15.424Z,7.90
2018-11-21T10:09:45.695Z,7.80
2018-11-21T10:12:14.361Z,8.40
2018-11-21T10:14:43.026Z,8.93
2018-11-21T10:17:11.617Z,8.37
2018-11-21T10:19:43.140Z,7.90
2018-11-21T10:22:11.794Z,8.20
2018-11-21T10:24:40.434Z,8.17
2018-11-21T10:27:09.018Z,7.87
2018-11-21T10:29:37.683Z,7.90
2018-11-21T10:32:06.362Z,7.77
2018-11-21T10:34:34.997Z,7.87
2018-11-21T10:37:03.899Z,8.13
2018-11-21T10:39:34.060Z,7.90
2018-11-21T10:42:02.768Z,7.90
2018-11-21T10:44:31.472Z,7.17
2018-11-21T10:47:03.054Z,7.90
2018-11-21T10:49:35.397Z,7.97
2018-11-21T10:52:05.066Z,7.90
2018-11-21T10:54:58.083Z,9.87
2018-11-21T10:57:12.469Z,7.47
2018-11-21T10:59:42.415Z,8.30
2018-11-21T11:02:27.504Z,7.67
2018-11-21T11:05:18.007Z,7.50
2018-11-21T11:08:37.402Z,8.10
2018-11-21T11:11:07.856Z,7.77
2018-11-21T11:14:00.312Z,7.27
2018-11-21T11:16:44.575Z,8.37
2018-11-21T11:19:34.362Z,7.30
2018-11-21T11:22:28.538Z,8.00
2018-11-21T11:25:22.376Z,7.53
2018-11-21T11:28:19.117Z,8.00
2018-11-21T11:31:06.806Z,8.07
2018-11-21T11:34:01.852Z,8.30
2018-11-21T11:36:40.571Z,7.63
2018-11-21T11:39:20.438Z,7.87
2018-11-21T11:42:08.170Z,7.30
2018-11-21T11:45:01.607Z,7.77
2018-11-21T11:47:54.971Z,9.63
2018-11-21T11:50:51.426Z,7.90
2018-11-21T11:53:47.168Z,7.50
2018-11-21T11:56:32.536Z,7.80
2018-11-21T11:59:20.594Z,8.27
2018-11-21T12:02:04.769Z,8.93
2018-11-21T12:05:10.707Z,8.27
2018-11-21T12:07:59.907Z,8.90
2018-11-21T12:10:40.659Z,8.50
2018-11-21T12:13:27.456Z,7.63
2018-11-21T12:16:13.612Z,7.37
2018-11-21T12:18:59.852Z,8.00
2018-11-21T12:21:53.413Z,7.87
2018-11-21T12:24:39.995Z,8.33
2018-11-21T12:27:28.731Z,8.37
2018-11-21T12:30:15.239Z,6.60
2018-11-21T12:33:01.367Z,7.37
2018-11-21T12:35:51.754Z,7.83
2018-11-21T12:38:37.829Z,8.17
2018-11-21T12:41:43.530Z,7.60
2018-11-21T12:44:27.865Z,12.53
2018-11-21T12:47:15.535Z,6.97
2018-11-21T12:50:09.123Z,8.10
2018-11-21T12:53:14.873Z,7.50
2018-11-21T12:55:58.931Z,11.17
2018-11-21T12:58:55.778Z,10.60
2018-11-21T13:02:01.313Z,7.17
2018-11-21T13:04:52.865Z,6.53
2018-11-21T13:07:43.209Z,7.47
2018-11-21T13:10:30.979Z,7.80
2018-11-21T13:13:20.890Z,7.80
2018-11-21T13:15:59.220Z,7.83
2018-11-21T13:18:47.350Z,7.77
2018-11-21T13:21:47.311Z,7.63
2018-11-21T13:24:51.026Z,7.40
2018-11-21T13:27:52.476Z,7.30
2018-11-21T13:30:38.744Z,7.57
2018-11-21T13:33:26.424Z,7.97
2018-11-21T13:36:14.307Z,8.17
2018-11-21T13:39:02.595Z,7.70
2018-11-21T13:41:49.626Z,8.07
2018-11-21T13:44:40.320Z,8.03
2018-11-21T13:47:30.718Z,9.07
2018-11-21T13:50:16.930Z,9.23
2018-11-21T13:53:22.768Z,8.43
2018-11-21T13:55:51.392Z,8.13
2018-11-21T13:58:19.994Z,7.97
2018-11-21T14:00:48.576Z,8.53
2018-11-21T14:03:17.173Z,8.67
2018-11-21T14:05:45.677Z,8.63
2018-11-21T14:08:16.438Z,9.23
2018-11-21T14:10:43.042Z,9.37
2018-11-21T14:13:11.626Z,10.47
2018-11-21T14:15:40.224Z,8.67
2018-11-21T14:18:08.839Z,9.57
2018-11-21T14:20:37.372Z,9.37
2018-11-21T14:23:08.116Z,13.43
2018-11-21T14:25:39.015Z,10.73
2018-11-21T14:28:10.938Z,12.70
2018-11-21T14:30:38.546Z,10.10
2018-11-21T14:33:09.558Z,11.63
2018-11-21T14:35:38.209Z,10.53
2018-11-21T14:38:07.310Z,10.60
2018-11-21T14:40:37.811Z,10.97
2018-11-21T14:43:11.014Z,10.73
2018-11-21T14:45:39.946Z,10.90
2018-11-21T14:48:08.753Z,10.00
2018-11-21T14:50:39.170Z,11.10
2018-11-21T14:53:05.782Z,11.10
2018-11-21T14:55:34.351Z,11.93
2018-11-21T14:58:04.000Z,11.93
2018-11-21T15:00:36.482Z,11.17
2018-11-21T15:03:05.545Z,10.87
2018-11-21T15:05:36.863Z,11.10
2018-11-21T15:08:05.745Z,10.83
2018-11-21T15:10:34.520Z,10.90
2018-11-21T15:13:03.266Z,11.27
2018-11-21T15:15:31.934Z,11.67
2018-11-21T15:18:00.522Z,12.00
2018-11-21T15:20:29.137Z,12.00
2018-11-21T15:23:00.450Z,11.80
2018-11-21T15:25:30.602Z,15.87
2018-11-21T15:27:57.982Z,10.57
2018-11-21T15:30:28.175Z,11.03
2018-11-21T15:32:56.731Z,11.70
2018-11-21T15:35:25.506Z,10.23
2018-11-21T15:37:54.083Z,9.87
2018-11-21T15:40:23.857Z,10.17
2018-11-21T15:42:52.580Z,9.93
2018-11-21T15:45:22.540Z,9.07
2018-11-21T15:47:58.888Z,8.77
2018-11-21T15:50:28.157Z,10.07
2018-11-21T15:52:56.905Z,9.77
2018-11-21T15:55:29.452Z,10.50
2018-11-21T15:57:56.335Z,9.80
2018-11-21T16:00:27.660Z,8.60
2018-11-21T16:03:00.323Z,10.50
2018-11-21T16:05:29.059Z,10.10
2018-11-21T16:08:03.256Z,10.37
2018-11-21T16:10:33.905Z,11.77
2018-11-21T16:13:02.920Z,11.27
2018-11-21T16:15:35.673Z,8.53
2018-11-21T16:18:01.873Z,11.43
2018-11-21T16:20:30.480Z,10.77
2018-11-21T16:22:59.113Z,9.90
2018-11-21T16:25:27.804Z,12.30
2018-11-21T16:27:56.562Z,8.87
2018-11-21T16:30:25.949Z,7.80
2018-11-21T16:32:54.650Z,7.70
2018-11-21T16:35:23.252Z,8.57
2018-11-21T16:37:51.892Z,7.27
2018-11-21T16:40:28.170Z,10.00
2018-11-21T16:42:58.507Z,8.70
2018-11-21T16:45:29.014Z,12.37
2018-11-21T16:47:57.592Z,11.93
2018-11-21T16:50:26.247Z,9.83
2018-11-21T16:52:54.948Z,10.63
2018-11-21T16:55:25.029Z,8.43
2018-11-21T16:57:54.699Z,10.67
2018-11-21T17:00:24.957Z,13.07
2018-11-21T17:02:53.562Z,8.93
2018-11-21T17:05:25.913Z,11.90
2018-11-21T17:07:54.516Z,7.60
2018-11-21T17:10:25.055Z,8.30
2018-11-21T17:12:53.695Z,7.90
2018-11-21T17:15:24.083Z,7.70
2018-11-21T17:17:52.818Z,7.37
2018-11-21T17:20:23.156Z,8.80
2018-11-21T17:22:59.424Z,7.93
2018-11-21T17:25:23.868Z,8.03
2018-11-21T17:27:52.485Z,8.33
2018-11-21T17:30:21.948Z,8.13
2018-11-21T17:32:50.661Z,10.53
2018-11-21T17:35:20.104Z,8.33
2018-11-21T17:37:49.044Z,7.90
2018-11-21T17:40:25.644Z,9.27
2018-11-21T17:42:55.983Z,7.37
2018-11-21T17:45:23.312Z,8.67
2018-11-21T17:47:52.136Z,9.10
2018-11-21T17:50:25.617Z,10.50
2018-11-21T17:52:58.730Z,8.73
2018-11-21T17:55:28.956Z,17.17
2018-11-21T17:57:57.576Z,13.17
2018-11-21T18:00:28.098Z,9.40
2018-11-21T18:02:56.821Z,10.13
2018-11-21T18:05:27.197Z,9.20
2018-11-21T18:07:58.759Z,12.27
2018-11-21T18:10:29.209Z,9.03
2018-11-21T18:13:00.906Z,11.33
2018-11-21T18:15:28.257Z,8.80
2018-11-21T18:17:57.630Z,10.10
2018-11-21T18:20:24.701Z,9.60
2018-11-21T18:22:53.587Z,12.97
2018-11-21T18:25:24.119Z,9.30
2018-11-21T18:27:52.818Z,11.00
2018-11-21T18:30:22.867Z,9.73
2018-11-21T18:32:51.658Z,9.83
2018-11-21T18:35:21.759Z,8.90
2018-11-21T18:37:50.404Z,12.73
2018-11-21T18:40:23.731Z,16.00
2018-11-21T18:42:54.626Z,12.60
2018-11-21T18:45:32.180Z,8.90
2018-11-21T18:48:00.946Z,15.43
2018-11-21T18:50:29.582Z,11.63
2018-11-21T18:53:01.999Z,12.80
2018-11-21T18:55:32.995Z,10.87
2018-11-21T18:58:28.687Z,12.30
2018-11-21T19:00:57.963Z,11.87
2018-11-21T19:03:26.571Z,11.10
2018-11-21T19:05:55.375Z,11.03
2018-11-21T19:08:25.120Z,9.37
2018-11-21T19:10:52.992Z,11.22
2018-11-21T19:13:22.363Z,10.83
2018-11-21T19:15:50.922Z,10.00
2018-11-21T19:18:19.517Z,9.60
2018-11-21T19:20:48.098Z,10.17
2018-11-21T19:23:16.675Z,9.37
2018-11-21T19:25:45.296Z,11.13
2018-11-21T19:28:13.879Z,9.83
2018-11-21T19:30:42.485Z,13.20
2018-11-21T19:33:11.449Z,9.83
2018-11-21T19:35:40.138Z,10.93
2018-11-21T19:38:08.647Z,10.20
2018-11-21T19:40:37.318Z,10.07
2018-11-21T19:43:05.969Z,10.00
2018-11-21T19:45:34.709Z,11.47
2018-11-21T19:48:03.246Z,11.10
2018-11-21T19:50:31.881Z,11.73
2018-11-21T19:53:00.505Z,11.43
2018-11-21T19:55:31.035Z,11.20
2018-11-21T19:57:59.631Z,11.87
2018-11-21T20:00:29.782Z,12.47
2018-11-21T20:02:58.574Z,11.97
2018-11-21T20:05:27.276Z,13.27
2018-11-21T20:07:55.930Z,12.57
2018-11-21T20:10:24.738Z,13.80
2018-11-21T20:12:53.382Z,13.17
2018-11-21T20:15:23.509Z,12.93
2018-11-21T20:17:55.196Z,13.03
2018-11-21T20:20:25.118Z,14.90
2018-11-21T20:22:56.489Z,12.60
2018-11-21T20:25:25.903Z,12.93
2018-11-21T20:27:56.224Z,13.50
2018-11-21T20:30:26.703Z,17.83
2018-11-21T20:32:55.426Z,15.20
2018-11-21T20:35:24.111Z,12.20
2018-11-21T20:37:52.692Z,11.50
2018-11-21T20:40:24.238Z,11.47
2018-11-21T20:42:51.941Z,12.40
2018-11-21T20:45:22.194Z,12.27
2018-11-21T20:47:51.818Z,11.77
2018-11-21T20:50:20.488Z,12.07
2018-11-21T20:52:49.390Z,12.70
2018-11-21T20:55:19.251Z,12.70
2018-11-21T20:57:47.936Z,13.33
2018-11-21T21:00:17.903Z,13.20
2018-11-21T21:02:46.727Z,12.20
2018-11-21T21:05:18.954Z,14.90
2018-11-21T21:07:49.741Z,16.62
2018-11-21T21:10:20.603Z,13.53
2018-11-21T21:12:49.150Z,14.63
2018-11-21T21:15:17.796Z,15.30
2018-11-21T21:17:47.396Z,15.03
2018-11-21T21:20:17.503Z,24.53
2018-11-21T21:22:47.454Z,16.17
2018-11-21T21:25:17.732Z,13.23
2018-11-21T21:27:46.387Z,13.70
2018-11-21T21:30:19.860Z,15.33
2018-11-21T21:32:49.046Z,13.77
2018-11-21T21:35:18.621Z,13.10
2018-11-21T21:37:47.200Z,13.63
2018-11-21T21:40:20.354Z,14.23
2018-11-21T21:42:46.255Z,13.63
2018-11-21T21:45:16.548Z,13.27
2018-11-21T21:47:45.172Z,16.10
2018-11-21T21:50:14.678Z,14.80
2018-11-21T21:52:45.545Z,14.53
2018-11-21T21:55:14.945Z,14.87
2018-11-21T21:57:43.595Z,14.30
2018-11-21T22:00:17.758Z,14.33
2018-11-21T22:02:46.893Z,14.20
2018-11-21T22:05:15.517Z,14.13
2018-11-21T22:07:44.174Z,13.47
2018-11-21T22:10:16.980Z,14.43
2018-11-21T22:12:47.919Z,14.43
2018-11-21T22:15:30.200Z,14.63
2018-11-21T22:18:03.103Z,13.00
2018-11-21T22:20:31.668Z,12.67
2018-11-21T22:23:00.388Z,14.57
2018-11-21T22:25:29.065Z,14.30
2018-11-21T22:27:57.704Z,14.97
2018-11-21T22:30:26.610Z,13.97
2018-11-21T22:32:55.954Z,14.23
2018-11-21T22:35:26.221Z,13.87
2018-11-21T22:37:54.945Z,13.30
2018-11-21T22:40:24.004Z,12.93
2018-11-21T22:42:52.717Z,13.17
2018-11-21T22:45:22.394Z,13.40
2018-11-21T22:47:51.005Z,12.13
2018-11-21T22:50:20.897Z,12.87
2018-11-21T22:52:49.515Z,11.43
2018-11-21T22:55:18.657Z,12.03
2018-11-21T22:57:47.893Z,11.77
2018-11-21T23:00:39.273Z,12.93
2018-11-21T23:03:07.803Z,12.83
2018-11-21T23:05:37.711Z,12.67
2018-11-21T23:08:05.163Z,11.83
2018-11-21T23:10:33.772Z,11.70
2018-11-21T23:13:02.335Z,11.43
2018-11-21T23:15:32.833Z,12.03
2018-11-21T23:17:59.631Z,12.07
2018-11-21T23:20:28.259Z,11.30
2018-11-21T23:22:56.854Z,11.60
2018-11-21T23:25:25.562Z,12.17
2018-11-21T23:27:54.144Z,12.70
2018-11-21T23:30:22.879Z,11.17
2018-11-21T23:32:54.219Z,11.90
2018-11-21T23:35:22.769Z,10.90
2018-11-21T23:37:51.356Z,11.47
2018-11-21T23:40:19.998Z,11.87
2018-11-21T23:42:50.229Z,12.80
2018-11-21T23:45:19.036Z,12.17
2018-11-21T23:47:47.913Z,10.80
2018-11-21T23:50:17.729Z,11.30
2018-11-21T23:52:46.301Z,13.17
2018-11-21T23:55:17.081Z,12.40
2018-11-21T23:57:46.005Z,11.47
